sensor_id;sensor_type;location;lat;lon;timestamp;temperature;humidity
34153;DHT22;20426;48.372;10.888;2023-04-01T00:00:08;8.50;99.90
34153;DHT22;20426;48.372;10.888;2023-04-01T00:00:40;8.50;99.90
34153;DHT22;20426;48.372;10.888;2023-04-01T00:01:13;8.50;99.90
34153;DHT22;20426;48.372;10.888;2023-04-01T00:01:47;8.50;99.90
34153;DHT22;20426;48.372;10.888;2023-04-01T00:02:17;8.50;99.90
34153;DHT22;20426;48.372;10.888;2023-04-01T00:02:48;8.50;99.90
34153;DHT22;20426;48.372;10.888;2023-04-01T00:03:20;8.50;99.90
34153;DHT22;20426;48.372;10.888;2023-04-01T00:03:51;8.50;99.90
34153;DHT22;20426;48.372;10.888;2023-04-01T00:04:22;8.50;99.90
34153;DHT22;20426;48.372;10.888;2023-04-01T00:04:52;8.50;99.90
34153;DHT22;20426;48.372;10.888;2023-04-01T00:05:23;8.50;99.90
34153;DHT22;20426;48.372;10.888;2023-04-01T00:05:56;8.50;99.90
34153;DHT22;20426;48.372;10.888;2023-04-01T00:06:27;8.50;99.90
34153;DHT22;20426;48.372;10.888;2023-04-01T00:06:59;8.50;99.90
34153;DHT22;20426;48.372;10.888;2023-04-01T00:07:30;8.50;99.90
34153;DHT22;20426;48.372;10.888;2023-04-01T00:08:02;8.50;99.90
34153;DHT22;20426;48.372;10.888;2023-04-01T00:08:32;8.50;99.90
34153;DHT22;20426;48.372;10.888;2023-04-01T00:09:03;8.50;99.90
34153;DHT22;20426;48.372;10.888;2023-04-01T00:09:34;8.40;99.90
34153;DHT22;20426;48.372;10.888;2023-04-01T00:10:10;8.50;99.90
34153;DHT22;20426;48.372;10.888;2023-04-01T00:10:41;8.50;99.90
34153;DHT22;20426;48.372;10.888;2023-04-01T00:11:12;8.50;99.90
34153;DHT22;20426;48.372;10.888;2023-04-01T00:11:43;8.50;99.90
34153;DHT22;20426;48.372;10.888;2023-04-01T00:12:15;8.50;99.90
34153;DHT22;20426;48.372;10.888;2023-04-01T00:12:46;8.50;99.90
34153;DHT22;20426;48.372;10.888;2023-04-01T00:13:17;8.50;99.90
34153;DHT22;20426;48.372;10.888;2023-04-01T00:13:49;8.50;99.90
34153;DHT22;20426;48.372;10.888;2023-04-01T00:14:19;8.50;99.90
34153;DHT22;20426;48.372;10.888;2023-04-01T00:14:50;8.60;99.90
34153;DHT22;20426;48.372;10.888;2023-04-01T00:15:21;8.50;99.90
34153;DHT22;20426;48.372;10.888;2023-04-01T00:15:53;8.60;99.90
34153;DHT22;20426;48.372;10.888;2023-04-01T00:16:24;8.50;99.90
34153;DHT22;20426;48.372;10.888;2023-04-01T00:16:55;8.50;99.90
34153;DHT22;20426;48.372;10.888;2023-04-01T00:17:26;8.50;99.90
34153;DHT22;20426;48.372;10.888;2023-04-01T00:17:57;8.50;99.90
34153;DHT22;20426;48.372;10.888;2023-04-01T00:18:28;8.50;99.90
34153;DHT22;20426;48.372;10.888;2023-04-01T00:18:59;8.50;99.90
34153;DHT22;20426;48.372;10.888;2023-04-01T00:19:30;8.50;99.90
34153;DHT22;20426;48.372;10.888;2023-04-01T00:20:03;8.50;99.90
34153;DHT22;20426;48.372;10.888;2023-04-01T00:20:34;8.50;99.90
34153;DHT22;20426;48.372;10.888;2023-04-01T00:21:05;8.50;99.90
34153;DHT22;20426;48.372;10.888;2023-04-01T00:21:36;8.50;99.90
34153;DHT22;20426;48.372;10.888;2023-04-01T00:22:07;8.50;99.90
34153;DHT22;20426;48.372;10.888;2023-04-01T00:22:41;8.50;99.90
34153;DHT22;20426;48.372;10.888;2023-04-01T00:23:13;8.50;99.90
34153;DHT22;20426;48.372;10.888;2023-04-01T00:23:44;8.50;99.90
34153;DHT22;20426;48.372;10.888;2023-04-01T00:24:15;8.50;99.90
34153;DHT22;20426;48.372;10.888;2023-04-01T00:24:46;8.50;99.90
34153;DHT22;20426;48.372;10.888;2023-04-01T00:25:17;8.50;99.90
34153;DHT22;20426;48.372;10.888;2023-04-01T00:25:48;8.50;99.90
34153;DHT22;20426;48.372;10.888;2023-04-01T00:26:20;8.50;99.90
34153;DHT22;20426;48.372;10.888;2023-04-01T00:26:52;8.50;99.90
34153;DHT22;20426;48.372;10.888;2023-04-01T00:27:22;8.50;99.90
34153;DHT22;20426;48.372;10.888;2023-04-01T00:27:53;8.50;99.90
34153;DHT22;20426;48.372;10.888;2023-04-01T00:28:24;8.50;99.90
34153;DHT22;20426;48.372;10.888;2023-04-01T00:28:55;8.50;99.90
34153;DHT22;20426;48.372;10.888;2023-04-01T00:29:26;8.50;99.90
34153;DHT22;20426;48.372;10.888;2023-04-01T00:29:59;8.50;99.90
34153;DHT22;20426;48.372;10.888;2023-04-01T00:30:30;8.50;99.90
34153;DHT22;20426;48.372;10.888;2023-04-01T00:31:08;8.50;99.90
34153;DHT22;20426;48.372;10.888;2023-04-01T00:31:38;8.50;99.90
34153;DHT22;20426;48.372;10.888;2023-04-01T00:32:10;8.50;99.90
34153;DHT22;20426;48.372;10.888;2023-04-01T00:32:41;8.50;99.90
34153;DHT22;20426;48.372;10.888;2023-04-01T00:33:12;8.50;99.90
34153;DHT22;20426;48.372;10.888;2023-04-01T00:33:43;8.50;99.90
34153;DHT22;20426;48.372;10.888;2023-04-01T00:34:14;8.50;99.90
34153;DHT22;20426;48.372;10.888;2023-04-01T00:34:45;8.50;99.90
34153;DHT22;20426;48.372;10.888;2023-04-01T00:35:15;8.50;99.90
34153;DHT22;20426;48.372;10.888;2023-04-01T00:35:47;8.50;99.90
34153;DHT22;20426;48.372;10.888;2023-04-01T00:36:20;8.50;99.90
34153;DHT22;20426;48.372;10.888;2023-04-01T00:36:52;8.50;99.90
34153;DHT22;20426;48.372;10.888;2023-04-01T00:37:24;8.50;99.90
34153;DHT22;20426;48.372;10.888;2023-04-01T00:37:55;8.50;99.90
34153;DHT22;20426;48.372;10.888;2023-04-01T00:38:26;8.50;99.90
34153;DHT22;20426;48.372;10.888;2023-04-01T00:38:57;8.50;99.90
34153;DHT22;20426;48.372;10.888;2023-04-01T00:39:33;8.50;99.90
34153;DHT22;20426;48.372;10.888;2023-04-01T00:40:06;8.50;99.90
34153;DHT22;20426;48.372;10.888;2023-04-01T00:40:43;8.50;99.90
34153;DHT22;20426;48.372;10.888;2023-04-01T00:41:15;8.50;99.90
34153;DHT22;20426;48.372;10.888;2023-04-01T00:41:47;8.50;99.90
34153;DHT22;20426;48.372;10.888;2023-04-01T00:42:18;8.50;99.90
34153;DHT22;20426;48.372;10.888;2023-04-01T00:42:49;8.50;99.90
34153;DHT22;20426;48.372;10.888;2023-04-01T00:43:20;8.50;99.90
34153;DHT22;20426;48.372;10.888;2023-04-01T00:43:51;8.50;99.90
34153;DHT22;20426;48.372;10.888;2023-04-01T00:44:24;8.50;99.90
34153;DHT22;20426;48.372;10.888;2023-04-01T00:44:55;8.50;99.90
34153;DHT22;20426;48.372;10.888;2023-04-01T00:45:32;8.50;99.90
34153;DHT22;20426;48.372;10.888;2023-04-01T00:46:03;8.50;99.90
34153;DHT22;20426;48.372;10.888;2023-04-01T00:46:33;8.50;99.90
34153;DHT22;20426;48.372;10.888;2023-04-01T00:47:06;8.50;99.90
34153;DHT22;20426;48.372;10.888;2023-04-01T00:47:37;8.50;99.90
34153;DHT22;20426;48.372;10.888;2023-04-01T00:48:11;8.40;99.90
34153;DHT22;20426;48.372;10.888;2023-04-01T00:48:52;8.50;99.90
34153;DHT22;20426;48.372;10.888;2023-04-01T00:49:28;8.50;99.90
34153;DHT22;20426;48.372;10.888;2023-04-01T00:50:00;8.50;99.90
34153;DHT22;20426;48.372;10.888;2023-04-01T00:50:31;8.50;99.90
34153;DHT22;20426;48.372;10.888;2023-04-01T00:51:09;8.50;99.90
34153;DHT22;20426;48.372;10.888;2023-04-01T00:51:42;8.50;99.90
34153;DHT22;20426;48.372;10.888;2023-04-01T00:52:17;8.50;99.90
34153;DHT22;20426;48.372;10.888;2023-04-01T00:52:49;8.40;99.90
34153;DHT22;20426;48.372;10.888;2023-04-01T00:53:21;8.40;99.90
34153;DHT22;20426;48.372;10.888;2023-04-01T00:53:55;8.40;99.90
34153;DHT22;20426;48.372;10.888;2023-04-01T00:54:27;8.40;99.90
34153;DHT22;20426;48.372;10.888;2023-04-01T00:54:59;8.40;99.90
34153;DHT22;20426;48.372;10.888;2023-04-01T00:55:34;8.40;99.90
34153;DHT22;20426;48.372;10.888;2023-04-01T00:56:17;8.40;99.90
34153;DHT22;20426;48.372;10.888;2023-04-01T00:57:34;8.50;99.90
34153;DHT22;20426;48.372;10.888;2023-04-01T00:58:09;8.40;99.90
34153;DHT22;20426;48.372;10.888;2023-04-01T00:58:46;8.40;99.90
34153;DHT22;20426;48.372;10.888;2023-04-01T00:59:25;8.50;99.90
34153;DHT22;20426;48.372;10.888;2023-04-01T00:59:55;8.40;99.90
34153;DHT22;20426;48.372;10.888;2023-04-01T01:00:26;8.50;99.90
34153;DHT22;20426;48.372;10.888;2023-04-01T01:00:59;8.50;99.90
34153;DHT22;20426;48.372;10.888;2023-04-01T01:01:30;8.50;99.90
34153;DHT22;20426;48.372;10.888;2023-04-01T01:02:04;8.40;99.90
34153;DHT22;20426;48.372;10.888;2023-04-01T01:02:36;8.50;99.90
34153;DHT22;20426;48.372;10.888;2023-04-01T01:03:07;8.50;99.90
34153;DHT22;20426;48.372;10.888;2023-04-01T01:03:38;8.50;99.90
34153;DHT22;20426;48.372;10.888;2023-04-01T01:04:22;8.50;99.90
34153;DHT22;20426;48.372;10.888;2023-04-01T01:05:55;8.50;99.90
34153;DHT22;20426;48.372;10.888;2023-04-01T01:06:40;8.50;99.90
34153;DHT22;20426;48.372;10.888;2023-04-01T01:07:27;8.50;99.90
34153;DHT22;20426;48.372;10.888;2023-04-01T01:08:12;8.50;99.90
34153;DHT22;20426;48.372;10.888;2023-04-01T01:10:49;8.50;99.90
34153;DHT22;20426;48.372;10.888;2023-04-01T01:11:36;8.50;99.90
34153;DHT22;20426;48.372;10.888;2023-04-01T01:13:58;8.50;99.90
34153;DHT22;20426;48.372;10.888;2023-04-01T01:15:32;8.50;99.90
34153;DHT22;20426;48.372;10.888;2023-04-01T01:16:30;8.50;99.90
34153;DHT22;20426;48.372;10.888;2023-04-01T01:23:42;8.40;99.90
34153;DHT22;20426;48.372;10.888;2023-04-01T01:26:39;8.40;99.90
34153;DHT22;20426;48.372;10.888;2023-04-01T01:27:18;8.40;99.90
34153;DHT22;20426;48.372;10.888;2023-04-01T01:28:13;8.40;99.90
34153;DHT22;20426;48.372;10.888;2023-04-01T01:30:43;8.40;99.90
34153;DHT22;20426;48.372;10.888;2023-04-01T01:31:27;8.40;99.90
34153;DHT22;20426;48.372;10.888;2023-04-01T01:32:55;8.40;99.90
34153;DHT22;20426;48.372;10.888;2023-04-01T01:33:39;8.40;99.90
34153;DHT22;20426;48.372;10.888;2023-04-01T01:35:56;8.40;99.90
34153;DHT22;20426;48.372;10.888;2023-04-01T01:36:31;8.40;99.90
34153;DHT22;20426;48.372;10.888;2023-04-01T01:37:16;8.30;99.90
34153;DHT22;20426;48.372;10.888;2023-04-01T01:37:53;8.40;99.90
34153;DHT22;20426;48.372;10.888;2023-04-01T01:38:28;8.30;99.90
34153;DHT22;20426;48.372;10.888;2023-04-01T01:39:03;8.30;99.90
34153;DHT22;20426;48.372;10.888;2023-04-01T01:39:36;8.30;99.90
34153;DHT22;20426;48.372;10.888;2023-04-01T01:40:09;8.30;99.90
34153;DHT22;20426;48.372;10.888;2023-04-01T01:40:44;8.30;99.90
34153;DHT22;20426;48.372;10.888;2023-04-01T01:41:17;8.30;99.90
34153;DHT22;20426;48.372;10.888;2023-04-01T01:41:49;8.30;99.90
34153;DHT22;20426;48.372;10.888;2023-04-01T01:42:20;8.30;99.90
34153;DHT22;20426;48.372;10.888;2023-04-01T01:42:58;8.30;99.90
34153;DHT22;20426;48.372;10.888;2023-04-01T01:43:32;8.30;99.90
34153;DHT22;20426;48.372;10.888;2023-04-01T01:44:07;8.40;99.90
34153;DHT22;20426;48.372;10.888;2023-04-01T01:44:39;8.40;99.90
34153;DHT22;20426;48.372;10.888;2023-04-01T01:45:12;8.40;99.90
34153;DHT22;20426;48.372;10.888;2023-04-01T01:45:48;8.40;99.90
34153;DHT22;20426;48.372;10.888;2023-04-01T01:46:22;8.40;99.90
34153;DHT22;20426;48.372;10.888;2023-04-01T01:46:55;8.30;99.90
34153;DHT22;20426;48.372;10.888;2023-04-01T01:47:27;8.30;99.90
34153;DHT22;20426;48.372;10.888;2023-04-01T01:48:00;8.30;99.90
34153;DHT22;20426;48.372;10.888;2023-04-01T01:48:33;8.30;99.90
34153;DHT22;20426;48.372;10.888;2023-04-01T01:49:05;8.30;99.90
34153;DHT22;20426;48.372;10.888;2023-04-01T01:49:39;8.30;99.90
34153;DHT22;20426;48.372;10.888;2023-04-01T01:50:12;8.30;99.90
34153;DHT22;20426;48.372;10.888;2023-04-01T01:50:45;8.30;99.90
34153;DHT22;20426;48.372;10.888;2023-04-01T01:51:18;8.30;99.90
34153;DHT22;20426;48.372;10.888;2023-04-01T01:51:50;8.20;99.90
34153;DHT22;20426;48.372;10.888;2023-04-01T01:52:22;8.20;99.90
34153;DHT22;20426;48.372;10.888;2023-04-01T01:53:08;8.20;99.90
34153;DHT22;20426;48.372;10.888;2023-04-01T01:53:39;8.30;99.90
34153;DHT22;20426;48.372;10.888;2023-04-01T01:54:14;8.20;99.90
34153;DHT22;20426;48.372;10.888;2023-04-01T01:54:53;8.20;99.90
34153;DHT22;20426;48.372;10.888;2023-04-01T01:56:01;8.20;99.90
34153;DHT22;20426;48.372;10.888;2023-04-01T01:56:32;8.20;99.90
34153;DHT22;20426;48.372;10.888;2023-04-01T01:57:08;8.20;99.90
34153;DHT22;20426;48.372;10.888;2023-04-01T01:57:39;8.20;99.90
34153;DHT22;20426;48.372;10.888;2023-04-01T01:59:04;8.20;99.90
34153;DHT22;20426;48.372;10.888;2023-04-01T01:59:39;8.20;99.90
34153;DHT22;20426;48.372;10.888;2023-04-01T02:00:11;8.20;99.90
34153;DHT22;20426;48.372;10.888;2023-04-01T02:01:07;8.20;99.90
34153;DHT22;20426;48.372;10.888;2023-04-01T02:01:42;8.20;99.90
34153;DHT22;20426;48.372;10.888;2023-04-01T02:02:15;8.10;99.90
34153;DHT22;20426;48.372;10.888;2023-04-01T02:02:48;8.10;99.90
34153;DHT22;20426;48.372;10.888;2023-04-01T02:03:21;8.10;99.90
34153;DHT22;20426;48.372;10.888;2023-04-01T02:03:54;8.10;99.90
34153;DHT22;20426;48.372;10.888;2023-04-01T02:04:25;8.10;99.90
34153;DHT22;20426;48.372;10.888;2023-04-01T02:04:57;8.10;99.90
34153;DHT22;20426;48.372;10.888;2023-04-01T02:05:29;8.10;99.90
34153;DHT22;20426;48.372;10.888;2023-04-01T02:06:04;8.10;99.90
34153;DHT22;20426;48.372;10.888;2023-04-01T02:06:38;8.10;99.90
34153;DHT22;20426;48.372;10.888;2023-04-01T02:07:18;8.10;99.90
34153;DHT22;20426;48.372;10.888;2023-04-01T02:08:10;8.10;99.90
34153;DHT22;20426;48.372;10.888;2023-04-01T02:08:57;8.10;99.90
34153;DHT22;20426;48.372;10.888;2023-04-01T02:09:29;8.10;99.90
34153;DHT22;20426;48.372;10.888;2023-04-01T02:10:01;8.10;99.90
34153;DHT22;20426;48.372;10.888;2023-04-01T02:10:36;8.10;99.90
34153;DHT22;20426;48.372;10.888;2023-04-01T02:11:10;8.10;99.90
34153;DHT22;20426;48.372;10.888;2023-04-01T02:11:53;8.10;99.90
34153;DHT22;20426;48.372;10.888;2023-04-01T02:12:27;8.10;99.90
34153;DHT22;20426;48.372;10.888;2023-04-01T02:13:01;8.10;99.90
34153;DHT22;20426;48.372;10.888;2023-04-01T02:15:09;8.10;99.90
34153;DHT22;20426;48.372;10.888;2023-04-01T02:15:44;8.10;99.90
34153;DHT22;20426;48.372;10.888;2023-04-01T02:16:31;8.10;99.90
34153;DHT22;20426;48.372;10.888;2023-04-01T02:17:20;8.10;99.90
34153;DHT22;20426;48.372;10.888;2023-04-01T02:17:51;8.10;99.90
34153;DHT22;20426;48.372;10.888;2023-04-01T02:18:22;8.10;99.90
34153;DHT22;20426;48.372;10.888;2023-04-01T02:18:54;8.10;99.90
34153;DHT22;20426;48.372;10.888;2023-04-01T02:19:35;8.10;99.90
34153;DHT22;20426;48.372;10.888;2023-04-01T02:20:11;8.10;99.90
34153;DHT22;20426;48.372;10.888;2023-04-01T02:20:44;8.00;99.90
34153;DHT22;20426;48.372;10.888;2023-04-01T02:21:16;8.00;99.90
34153;DHT22;20426;48.372;10.888;2023-04-01T02:22:00;8.00;99.90
34153;DHT22;20426;48.372;10.888;2023-04-01T02:22:34;8.00;99.90
34153;DHT22;20426;48.372;10.888;2023-04-01T02:23:07;8.00;99.90
34153;DHT22;20426;48.372;10.888;2023-04-01T02:23:38;8.10;99.90
34153;DHT22;20426;48.372;10.888;2023-04-01T02:24:13;8.10;99.90
34153;DHT22;20426;48.372;10.888;2023-04-01T02:24:46;8.10;99.90
34153;DHT22;20426;48.372;10.888;2023-04-01T02:25:22;8.10;99.90
34153;DHT22;20426;48.372;10.888;2023-04-01T02:25:54;8.10;99.90
34153;DHT22;20426;48.372;10.888;2023-04-01T02:26:25;8.10;99.90
34153;DHT22;20426;48.372;10.888;2023-04-01T02:26:57;8.10;99.90
34153;DHT22;20426;48.372;10.888;2023-04-01T02:27:28;8.10;99.90
34153;DHT22;20426;48.372;10.888;2023-04-01T02:28:00;8.10;99.90
34153;DHT22;20426;48.372;10.888;2023-04-01T02:28:33;8.10;99.90
34153;DHT22;20426;48.372;10.888;2023-04-01T02:29:05;8.10;99.90
34153;DHT22;20426;48.372;10.888;2023-04-01T02:29:37;8.10;99.90
34153;DHT22;20426;48.372;10.888;2023-04-01T02:30:08;8.10;99.90
34153;DHT22;20426;48.372;10.888;2023-04-01T02:30:41;8.10;99.90
34153;DHT22;20426;48.372;10.888;2023-04-01T02:31:14;8.10;99.90
34153;DHT22;20426;48.372;10.888;2023-04-01T02:31:45;8.10;99.90
34153;DHT22;20426;48.372;10.888;2023-04-01T02:32:18;8.10;99.90
34153;DHT22;20426;48.372;10.888;2023-04-01T02:32:49;8.00;99.90
34153;DHT22;20426;48.372;10.888;2023-04-01T02:33:21;8.00;99.90
34153;DHT22;20426;48.372;10.888;2023-04-01T02:33:52;8.00;99.90
34153;DHT22;20426;48.372;10.888;2023-04-01T02:34:24;8.00;99.90
34153;DHT22;20426;48.372;10.888;2023-04-01T02:34:56;8.00;99.90
34153;DHT22;20426;48.372;10.888;2023-04-01T02:35:27;8.00;99.90
34153;DHT22;20426;48.372;10.888;2023-04-01T02:35:58;8.00;99.90
34153;DHT22;20426;48.372;10.888;2023-04-01T02:36:29;7.90;99.90
34153;DHT22;20426;48.372;10.888;2023-04-01T02:37:00;7.90;99.90
34153;DHT22;20426;48.372;10.888;2023-04-01T02:37:31;7.90;99.90
34153;DHT22;20426;48.372;10.888;2023-04-01T02:38:03;7.90;99.90
34153;DHT22;20426;48.372;10.888;2023-04-01T02:38:35;7.90;99.90
34153;DHT22;20426;48.372;10.888;2023-04-01T02:39:07;7.90;99.90
34153;DHT22;20426;48.372;10.888;2023-04-01T02:39:38;7.90;99.90
34153;DHT22;20426;48.372;10.888;2023-04-01T02:40:14;7.90;99.90
34153;DHT22;20426;48.372;10.888;2023-04-01T02:40:50;7.90;99.90
34153;DHT22;20426;48.372;10.888;2023-04-01T02:41:21;7.90;99.90
34153;DHT22;20426;48.372;10.888;2023-04-01T02:41:52;7.90;99.90
34153;DHT22;20426;48.372;10.888;2023-04-01T02:42:23;7.90;99.90
34153;DHT22;20426;48.372;10.888;2023-04-01T02:42:54;7.90;99.90
34153;DHT22;20426;48.372;10.888;2023-04-01T02:43:24;7.90;99.90
34153;DHT22;20426;48.372;10.888;2023-04-01T02:43:56;7.90;99.90
34153;DHT22;20426;48.372;10.888;2023-04-01T02:44:28;7.90;99.90
34153;DHT22;20426;48.372;10.888;2023-04-01T02:44:59;7.90;99.90
34153;DHT22;20426;48.372;10.888;2023-04-01T02:45:30;7.90;99.90
34153;DHT22;20426;48.372;10.888;2023-04-01T02:46:01;7.90;99.90
34153;DHT22;20426;48.372;10.888;2023-04-01T02:46:32;7.90;99.90
34153;DHT22;20426;48.372;10.888;2023-04-01T02:47:03;7.90;99.90
34153;DHT22;20426;48.372;10.888;2023-04-01T02:47:33;7.90;99.90
34153;DHT22;20426;48.372;10.888;2023-04-01T02:48:05;7.90;99.90
34153;DHT22;20426;48.372;10.888;2023-04-01T02:48:35;7.90;99.90
34153;DHT22;20426;48.372;10.888;2023-04-01T02:49:06;7.80;99.90
34153;DHT22;20426;48.372;10.888;2023-04-01T02:49:37;7.80;99.90
34153;DHT22;20426;48.372;10.888;2023-04-01T02:50:09;7.80;99.90
34153;DHT22;20426;48.372;10.888;2023-04-01T02:50:40;7.80;99.90
34153;DHT22;20426;48.372;10.888;2023-04-01T02:51:11;7.80;99.90
34153;DHT22;20426;48.372;10.888;2023-04-01T02:51:41;7.80;99.90
34153;DHT22;20426;48.372;10.888;2023-04-01T02:52:12;7.80;99.90
34153;DHT22;20426;48.372;10.888;2023-04-01T02:52:43;7.80;99.90
34153;DHT22;20426;48.372;10.888;2023-04-01T02:53:13;7.80;99.90
34153;DHT22;20426;48.372;10.888;2023-04-01T02:53:44;7.80;99.90
34153;DHT22;20426;48.372;10.888;2023-04-01T02:54:15;7.80;99.90
34153;DHT22;20426;48.372;10.888;2023-04-01T02:54:46;7.80;99.90
34153;DHT22;20426;48.372;10.888;2023-04-01T02:55:17;7.80;99.90
34153;DHT22;20426;48.372;10.888;2023-04-01T02:55:47;7.80;99.90
34153;DHT22;20426;48.372;10.888;2023-04-01T02:56:20;7.80;99.90
34153;DHT22;20426;48.372;10.888;2023-04-01T02:56:51;7.80;99.90
34153;DHT22;20426;48.372;10.888;2023-04-01T02:57:22;7.70;99.90
34153;DHT22;20426;48.372;10.888;2023-04-01T02:57:53;7.70;99.90
34153;DHT22;20426;48.372;10.888;2023-04-01T02:58:24;7.70;99.90
34153;DHT22;20426;48.372;10.888;2023-04-01T02:58:55;7.70;99.90
34153;DHT22;20426;48.372;10.888;2023-04-01T02:59:26;7.70;99.90
34153;DHT22;20426;48.372;10.888;2023-04-01T02:59:56;7.70;99.90
34153;DHT22;20426;48.372;10.888;2023-04-01T03:00:27;7.70;99.90
34153;DHT22;20426;48.372;10.888;2023-04-01T03:00:58;7.70;99.90
34153;DHT22;20426;48.372;10.888;2023-04-01T03:01:29;7.70;99.90
34153;DHT22;20426;48.372;10.888;2023-04-01T03:02:00;7.70;99.90
34153;DHT22;20426;48.372;10.888;2023-04-01T03:02:30;7.70;99.90
34153;DHT22;20426;48.372;10.888;2023-04-01T03:03:01;7.70;99.90
34153;DHT22;20426;48.372;10.888;2023-04-01T03:03:33;7.70;99.90
34153;DHT22;20426;48.372;10.888;2023-04-01T03:04:04;7.70;99.90
34153;DHT22;20426;48.372;10.888;2023-04-01T03:04:34;7.70;99.90
34153;DHT22;20426;48.372;10.888;2023-04-01T03:05:07;7.70;99.90
34153;DHT22;20426;48.372;10.888;2023-04-01T03:05:38;7.70;99.90
34153;DHT22;20426;48.372;10.888;2023-04-01T03:06:11;7.70;99.90
34153;DHT22;20426;48.372;10.888;2023-04-01T03:06:42;7.70;99.90
34153;DHT22;20426;48.372;10.888;2023-04-01T03:07:13;7.70;99.90
34153;DHT22;20426;48.372;10.888;2023-04-01T03:07:43;7.70;99.90
34153;DHT22;20426;48.372;10.888;2023-04-01T03:08:14;7.70;99.90
34153;DHT22;20426;48.372;10.888;2023-04-01T03:08:45;7.70;99.90
34153;DHT22;20426;48.372;10.888;2023-04-01T03:09:16;7.70;99.90
34153;DHT22;20426;48.372;10.888;2023-04-01T03:09:47;7.70;99.90
34153;DHT22;20426;48.372;10.888;2023-04-01T03:10:17;7.70;99.90
34153;DHT22;20426;48.372;10.888;2023-04-01T03:10:48;7.60;99.90
34153;DHT22;20426;48.372;10.888;2023-04-01T03:11:19;7.60;99.90
34153;DHT22;20426;48.372;10.888;2023-04-01T03:11:51;7.60;99.90
34153;DHT22;20426;48.372;10.888;2023-04-01T03:12:22;7.60;99.90
34153;DHT22;20426;48.372;10.888;2023-04-01T03:12:52;7.60;99.90
34153;DHT22;20426;48.372;10.888;2023-04-01T03:13:23;7.60;99.90
34153;DHT22;20426;48.372;10.888;2023-04-01T03:13:54;7.60;99.90
34153;DHT22;20426;48.372;10.888;2023-04-01T03:14:25;7.60;99.90
34153;DHT22;20426;48.372;10.888;2023-04-01T03:14:55;7.60;99.90
34153;DHT22;20426;48.372;10.888;2023-04-01T03:15:26;7.60;99.90
34153;DHT22;20426;48.372;10.888;2023-04-01T03:15:57;7.60;99.90
34153;DHT22;20426;48.372;10.888;2023-04-01T03:16:28;7.60;99.90
34153;DHT22;20426;48.372;10.888;2023-04-01T03:16:59;7.60;99.90
34153;DHT22;20426;48.372;10.888;2023-04-01T03:17:30;7.60;99.90
34153;DHT22;20426;48.372;10.888;2023-04-01T03:18:00;7.60;99.90
34153;DHT22;20426;48.372;10.888;2023-04-01T03:18:31;7.60;99.90
34153;DHT22;20426;48.372;10.888;2023-04-01T03:19:02;7.60;99.90
34153;DHT22;20426;48.372;10.888;2023-04-01T03:19:32;7.60;99.90
34153;DHT22;20426;48.372;10.888;2023-04-01T03:20:03;7.60;99.90
34153;DHT22;20426;48.372;10.888;2023-04-01T03:20:35;7.60;99.90
34153;DHT22;20426;48.372;10.888;2023-04-01T03:21:17;7.60;99.90
34153;DHT22;20426;48.372;10.888;2023-04-01T03:21:48;7.60;99.90
34153;DHT22;20426;48.372;10.888;2023-04-01T03:22:19;7.60;99.90
34153;DHT22;20426;48.372;10.888;2023-04-01T03:22:51;7.60;99.90
34153;DHT22;20426;48.372;10.888;2023-04-01T03:23:22;7.60;99.90
34153;DHT22;20426;48.372;10.888;2023-04-01T03:23:54;7.60;99.90
34153;DHT22;20426;48.372;10.888;2023-04-01T03:24:25;7.60;99.90
34153;DHT22;20426;48.372;10.888;2023-04-01T03:24:56;7.60;99.90
34153;DHT22;20426;48.372;10.888;2023-04-01T03:25:26;7.60;99.90
34153;DHT22;20426;48.372;10.888;2023-04-01T03:25:59;7.60;99.90
34153;DHT22;20426;48.372;10.888;2023-04-01T03:26:29;7.60;99.90
34153;DHT22;20426;48.372;10.888;2023-04-01T03:27:00;7.60;99.90
34153;DHT22;20426;48.372;10.888;2023-04-01T03:27:31;7.60;99.90
34153;DHT22;20426;48.372;10.888;2023-04-01T03:28:02;7.60;99.90
34153;DHT22;20426;48.372;10.888;2023-04-01T03:28:33;7.60;99.90
34153;DHT22;20426;48.372;10.888;2023-04-01T03:29:03;7.60;99.90
34153;DHT22;20426;48.372;10.888;2023-04-01T03:29:35;7.60;99.90
34153;DHT22;20426;48.372;10.888;2023-04-01T03:30:06;7.60;99.90
34153;DHT22;20426;48.372;10.888;2023-04-01T03:30:37;7.60;99.90
34153;DHT22;20426;48.372;10.888;2023-04-01T03:31:08;7.60;99.90
34153;DHT22;20426;48.372;10.888;2023-04-01T03:31:39;7.70;99.90
34153;DHT22;20426;48.372;10.888;2023-04-01T03:32:10;7.60;99.90
34153;DHT22;20426;48.372;10.888;2023-04-01T03:32:40;7.70;99.90
34153;DHT22;20426;48.372;10.888;2023-04-01T03:33:11;7.70;99.90
34153;DHT22;20426;48.372;10.888;2023-04-01T03:33:42;7.70;99.90
34153;DHT22;20426;48.372;10.888;2023-04-01T03:34:13;7.60;99.90
34153;DHT22;20426;48.372;10.888;2023-04-01T03:34:44;7.60;99.90
34153;DHT22;20426;48.372;10.888;2023-04-01T03:35:15;7.70;99.90
34153;DHT22;20426;48.372;10.888;2023-04-01T03:35:45;7.70;99.90
34153;DHT22;20426;48.372;10.888;2023-04-01T03:36:17;7.70;99.90
34153;DHT22;20426;48.372;10.888;2023-04-01T03:36:48;7.70;99.90
34153;DHT22;20426;48.372;10.888;2023-04-01T03:37:19;7.60;99.90
34153;DHT22;20426;48.372;10.888;2023-04-01T03:37:53;7.60;99.90
34153;DHT22;20426;48.372;10.888;2023-04-01T03:38:24;7.60;99.90
34153;DHT22;20426;48.372;10.888;2023-04-01T03:38:55;7.60;99.90
34153;DHT22;20426;48.372;10.888;2023-04-01T03:39:25;7.60;99.90
34153;DHT22;20426;48.372;10.888;2023-04-01T03:39:56;7.60;99.90
34153;DHT22;20426;48.372;10.888;2023-04-01T03:40:27;7.60;99.90
34153;DHT22;20426;48.372;10.888;2023-04-01T03:40:58;7.60;99.90
34153;DHT22;20426;48.372;10.888;2023-04-01T03:41:28;7.60;99.90
34153;DHT22;20426;48.372;10.888;2023-04-01T03:42:00;7.60;99.90
34153;DHT22;20426;48.372;10.888;2023-04-01T03:42:31;7.60;99.90
34153;DHT22;20426;48.372;10.888;2023-04-01T03:43:02;7.60;99.90
34153;DHT22;20426;48.372;10.888;2023-04-01T03:43:34;7.60;99.90
34153;DHT22;20426;48.372;10.888;2023-04-01T03:44:05;7.60;99.90
34153;DHT22;20426;48.372;10.888;2023-04-01T03:44:35;7.60;99.90
34153;DHT22;20426;48.372;10.888;2023-04-01T03:45:06;7.60;99.90
34153;DHT22;20426;48.372;10.888;2023-04-01T03:45:44;7.60;99.90
34153;DHT22;20426;48.372;10.888;2023-04-01T03:46:19;7.60;99.90
34153;DHT22;20426;48.372;10.888;2023-04-01T03:46:50;7.60;99.90
34153;DHT22;20426;48.372;10.888;2023-04-01T03:47:20;7.60;99.90
34153;DHT22;20426;48.372;10.888;2023-04-01T03:47:51;7.60;99.90
34153;DHT22;20426;48.372;10.888;2023-04-01T03:48:22;7.60;99.90
34153;DHT22;20426;48.372;10.888;2023-04-01T03:48:53;7.60;99.90
34153;DHT22;20426;48.372;10.888;2023-04-01T03:49:23;7.60;99.90
34153;DHT22;20426;48.372;10.888;2023-04-01T03:49:54;7.60;99.90
34153;DHT22;20426;48.372;10.888;2023-04-01T03:50:25;7.60;99.90